createdAt,value
2023-02-23T00:00:17.107Z,15.9
2023-02-23T00:06:10.472Z,15.8
2023-02-23T00:12:03.746Z,15.9
2023-02-23T00:17:55.358Z,16.1
2023-02-23T00:23:32.611Z,16.2
2023-02-23T00:29:28.053Z,16.1
2023-02-23T00:35:23.537Z,16.1
2023-02-23T00:41:16.107Z,16.2
2023-02-23T00:47:10.460Z,16.1
2023-02-23T00:53:03.327Z,16.1
2023-02-23T00:58:56.048Z,15.9
2023-02-23T01:04:49.218Z,15.8
2023-02-23T01:10:41.814Z,15.7
2023-02-23T01:16:35.338Z,15.8
2023-02-23T01:22:28.921Z,16
2023-02-23T01:28:06.643Z,16.1
2023-02-23T01:34:01.772Z,15.9
2023-02-23T01:39:55.579Z,15.8
2023-02-23T01:45:47.188Z,15.7
2023-02-23T01:51:25.067Z,15.6
2023-02-23T01:57:19.095Z,15.8
2023-02-23T02:02:56.140Z,15.9
2023-02-23T02:08:48.952Z,15.9
2023-02-23T02:14:42.961Z,15.9
2023-02-23T02:20:19.678Z,15.8
2023-02-23T02:25:57.937Z,15.6
2023-02-23T02:31:52.590Z,15.6
2023-02-23T02:37:45.250Z,15.6
2023-02-23T02:43:38.255Z,15.6
2023-02-23T02:49:16.808Z,15.6
2023-02-23T02:54:54.254Z,15.8
2023-02-23T03:00:31.232Z,15.9
2023-02-23T03:06:09.566Z,15.9
2023-02-23T03:11:30.488Z,15.8
2023-02-23T03:17:08.246Z,15.7
2023-02-23T03:22:46.852Z,15.6
2023-02-23T03:28:23.565Z,15.6
2023-02-23T03:33:45.004Z,15.6
2023-02-23T03:38:51.834Z,15.8
2023-02-23T03:44:30.089Z,15.9
2023-02-23T03:50:07.810Z,15.9
2023-02-23T03:56:02.236Z,15.8
2023-02-23T04:01:39.880Z,15.8
2023-02-23T04:07:16.637Z,15.6
2023-02-23T04:12:40.178Z,15.6
2023-02-23T04:18:01.532Z,15.6
2023-02-23T04:23:38.162Z,15.8
2023-02-23T04:29:00.692Z,15.9
2023-02-23T04:34:54.581Z,15.8
2023-02-23T04:40:31.143Z,15.9
2023-02-23T04:46:09.632Z,15.9
2023-02-23T04:51:31.578Z,16
2023-02-23T04:57:27.373Z,15.9
2023-02-23T05:03:23.412Z,15.8
2023-02-23T05:09:15.436Z,15.6
2023-02-23T05:15:07.450Z,15.5
2023-02-23T05:21:01.785Z,15.6
2023-02-23T05:26:54.836Z,15.7
2023-02-23T05:32:48.528Z,15.6
2023-02-23T05:38:42.506Z,15.7
2023-02-23T05:44:34.668Z,15.9
2023-02-23T05:50:12.249Z,15.9
2023-02-23T05:55:50.846Z,15.8
2023-02-23T06:01:27.276Z,15.7
2023-02-23T06:07:20.209Z,15.6
2023-02-23T06:13:14.468Z,15.5
2023-02-23T06:19:06.063Z,15.6
2023-02-23T06:24:58.407Z,15.8
2023-02-23T06:30:53.557Z,15.8
2023-02-23T06:36:46.958Z,15.8
2023-02-23T06:42:38.704Z,15.7
2023-02-23T06:48:31.976Z,15.6
2023-02-23T06:54:08.927Z,15.4
2023-02-23T07:00:03.797Z,15.5
2023-02-23T07:05:58.001Z,15.7
2023-02-23T07:11:51.070Z,15.9
2023-02-23T07:17:47.598Z,15.8
2023-02-23T07:23:41.006Z,15.8
2023-02-23T07:29:33.421Z,15.9
2023-02-23T07:35:27.168Z,15.9
2023-02-23T07:41:21.609Z,15.8
2023-02-23T07:47:14.791Z,15.6
2023-02-23T07:53:07.800Z,15.6
2023-02-23T07:59:02.761Z,15.5
2023-02-23T08:04:55.864Z,15.6
2023-02-23T08:10:49.674Z,15.8
2023-02-23T08:16:43.531Z,15.9
2023-02-23T08:22:47.323Z,15.8
2023-02-23T08:28:40.118Z,15.8
2023-02-23T08:34:35.482Z,15.9
2023-02-23T08:40:27.960Z,15.9
2023-02-23T08:46:20.719Z,15.9
2023-02-23T08:52:14.299Z,15.9
2023-02-23T08:57:50.490Z,16
2023-02-23T09:03:42.399Z,15.9
2023-02-23T09:09:36.173Z,15.9
2023-02-23T09:15:28.611Z,15.9
2023-02-23T09:21:21.741Z,16
2023-02-23T09:27:02.108Z,15.9
2023-02-23T09:32:40.365Z,15.9
2023-02-23T09:38:17.580Z,16.1
2023-02-23T09:44:07.407Z,16.1
2023-02-23T09:50:00.102Z,16.1
2023-02-23T09:55:53.232Z,16
2023-02-23T10:01:47.016Z,16.2
2023-02-23T10:07:26.736Z,16.3
2023-02-23T10:13:22.062Z,16.2
2023-02-23T10:19:18.220Z,16.2
2023-02-23T10:25:11.109Z,16.3
2023-02-23T10:31:03.280Z,16.3
2023-02-23T10:36:47.984Z,16.2
2023-02-23T10:42:41.000Z,16.3
2023-02-23T10:48:24.729Z,16.3
2023-02-23T10:54:08.155Z,16.3
2023-02-23T11:00:01.810Z,16.2
2023-02-23T11:06:19.394Z,16.2
2023-02-23T11:12:29.714Z,16.4
2023-02-23T11:18:35.400Z,16.4
2023-02-23T11:24:37.325Z,16.3
2023-02-23T11:30:31.364Z,16.2
2023-02-23T11:36:24.757Z,16.1
2023-02-23T11:42:17.326Z,15.9
2023-02-23T11:48:15.581Z,15.8
2023-02-23T11:54:07.957Z,15.7
2023-02-23T11:59:45.490Z,15.6
2023-02-23T12:05:39.916Z,15.5
2023-02-23T12:11:17.878Z,15.4
2023-02-23T12:17:11.823Z,15.4
2023-02-23T12:23:04.344Z,15.3
2023-02-23T12:29:08.874Z,15.3
2023-02-23T12:35:02.095Z,15.2
2023-02-23T12:40:55.822Z,15.1
2023-02-23T12:46:48.085Z,15.1
2023-02-23T12:52:26.030Z,15
2023-02-23T12:58:18.946Z,14.9
2023-02-23T13:04:14.167Z,14.9
2023-02-23T13:10:14.224Z,14.9
2023-02-23T13:16:08.042Z,14.8
2023-02-23T13:21:45.637Z,14.8
2023-02-23T13:27:22.718Z,14.8
2023-02-23T13:33:05.114Z,14.8
2023-02-23T13:39:16.764Z,14.7
2023-02-23T13:45:09.843Z,14.6
2023-02-23T13:51:10.987Z,14.6
2023-02-23T13:57:12.905Z,14.6
2023-02-23T14:03:07.208Z,14.6
2023-02-23T14:08:30.973Z,14.6
2023-02-23T14:14:27.427Z,14.5
2023-02-23T14:20:29.465Z,14.5
2023-02-23T14:26:23.379Z,14.4
2023-02-23T14:32:34.563Z,14.4
2023-02-23T14:38:22.456Z,14.4
2023-02-23T14:44:36.540Z,14.4
2023-02-23T14:50:30.986Z,14.4
2023-02-23T14:56:20.276Z,14.4
2023-02-23T15:02:23.176Z,14.4
2023-02-23T15:08:30.454Z,14.4
2023-02-23T15:14:29.260Z,14.4
2023-02-23T15:26:40.575Z,14.3
2023-02-23T15:32:34.836Z,14.3
2023-02-23T15:39:01.038Z,14.3
2023-02-23T15:45:00.941Z,14.3
2023-02-23T15:51:09.242Z,14.3
2023-02-23T15:56:47.213Z,14.3
2023-02-23T16:02:48.816Z,14.3
2023-02-23T16:08:50.307Z,14.3
2023-02-23T16:14:43.771Z,14.3
2023-02-23T16:20:46.644Z,14.3
2023-02-23T16:26:47.287Z,14.3
2023-02-23T16:32:10.021Z,14.3
2023-02-23T16:37:48.160Z,14.3
2023-02-23T16:43:40.780Z,14.2
2023-02-23T16:49:42.510Z,14.2
2023-02-23T16:55:40.432Z,14.2
2023-02-23T17:01:35.505Z,14.2
2023-02-23T17:07:24.196Z,14.2
2023-02-23T17:13:24.284Z,14.2
2023-02-23T17:19:17.041Z,14.2
2023-02-23T17:25:10.442Z,14.2
2023-02-23T17:31:04.452Z,14.2
2023-02-23T17:37:01.147Z,14.2
2023-02-23T17:42:54.460Z,14.1
2023-02-23T17:48:48.788Z,14.1
2023-02-23T17:54:41.832Z,14.1
2023-02-23T18:00:36.501Z,14.1
2023-02-23T18:06:31.348Z,14.1
2023-02-23T18:12:08.141Z,14.1
2023-02-23T18:18:01.703Z,14.1
2023-02-23T18:23:56.939Z,14.1
2023-02-23T18:29:33.295Z,14.1
2023-02-23T18:35:28.808Z,14.1
2023-02-23T18:41:22.913Z,14.1
2023-02-23T18:46:59.346Z,14.1
2023-02-23T18:52:37.250Z,14.1
2023-02-23T18:58:32.583Z,14.1
2023-02-23T19:04:26.445Z,14.1
2023-02-23T19:10:05.572Z,14.1
2023-02-23T19:16:12.667Z,14.1
2023-02-23T19:22:05.849Z,14.1
2023-02-23T19:27:43.213Z,14.1
2023-02-23T19:33:38.964Z,14.1
2023-02-23T19:39:31.142Z,14.1
2023-02-23T19:45:24.175Z,14.1
2023-02-23T19:51:17.562Z,14.1
2023-02-23T19:57:08.681Z,14.1
2023-02-23T20:03:02.025Z,14.1
2023-02-23T20:08:56.232Z,14
2023-02-23T20:14:48.527Z,14
2023-02-23T20:20:41.961Z,14
2023-02-23T20:26:34.530Z,14.1
2023-02-23T20:32:28.855Z,14.1
2023-02-23T20:38:22.276Z,14
2023-02-23T20:44:16.632Z,14
2023-02-23T20:50:08.438Z,14.2
2023-02-23T20:55:47.164Z,14.6
2023-02-23T21:01:26.110Z,15.1
2023-02-23T21:07:19.868Z,15.4
2023-02-23T21:13:13.228Z,15.8
2023-02-23T21:18:50.865Z,15.9
2023-02-23T21:24:45.791Z,16.1
2023-02-23T21:30:09.736Z,16.1
2023-02-23T21:36:05.438Z,16.3
2023-02-23T21:41:57.846Z,16.3
2023-02-23T21:47:51.622Z,16.4
2023-02-23T21:53:45.013Z,16.4
2023-02-23T21:59:44.559Z,16.4
2023-02-23T22:05:38.414Z,16.4
2023-02-23T22:11:15.047Z,16.6
2023-02-23T22:17:07.326Z,16.6
2023-02-23T22:23:01.640Z,16.5
2023-02-23T22:28:54.157Z,16.6
2023-02-23T22:34:47.988Z,16.6
2023-02-23T22:40:25.088Z,16.6
2023-02-23T22:46:18.545Z,16.5
2023-02-23T22:52:55.236Z,16.6
2023-02-23T22:58:32.501Z,16.6
2023-02-23T23:04:25.832Z,16.5
2023-02-23T23:10:19.642Z,16.6
2023-02-23T23:16:31.355Z,16.6
2023-02-23T23:22:25.665Z,16.5
2023-02-23T23:28:17.372Z,16.4
2023-02-23T23:34:12.551Z,16.5
2023-02-23T23:40:05.316Z,16.6
2023-02-23T23:45:57.558Z,16.5
2023-02-23T23:51:50.993Z,16.4
2023-02-23T23:57:44.728Z,16.6
